sensor_id;sensor_type;location;lat;lon;timestamp;pressure;altitude;pressure_sealevel;temperature;humidity
40372;BME280;28564;53.346;-6.554;2023-06-10T00:00:15;100574.55;;;20.43;42.11
40372;BME280;28564;53.346;-6.554;2023-06-10T00:02:42;100572.58;;;20.40;42.17
40372;BME280;28564;53.346;-6.554;2023-06-10T00:05:09;100567.69;;;20.14;42.20
40372;BME280;28564;53.346;-6.554;2023-06-10T00:07:37;100568.94;;;20.37;42.24
40372;BME280;28564;53.346;-6.554;2023-06-10T00:10:04;100568.56;;;20.08;42.32
40372;BME280;28564;53.346;-6.554;2023-06-10T00:12:32;100568.23;;;20.32;42.40
40372;BME280;28564;53.346;-6.554;2023-06-10T00:14:59;100563.90;;;20.30;42.45
40372;BME280;28564;53.346;-6.554;2023-06-10T00:17:26;100565.98;;;20.32;42.46
40372;BME280;28564;53.346;-6.554;2023-06-10T00:19:53;100568.21;;;20.27;42.50
40372;BME280;28564;53.346;-6.554;2023-06-10T00:22:21;100566.10;;;20.27;42.53
40372;BME280;28564;53.346;-6.554;2023-06-10T00:24:49;100565.03;;;20.48;42.57
40372;BME280;28564;53.346;-6.554;2023-06-10T00:27:16;100563.49;;;20.29;42.60
40372;BME280;28564;53.346;-6.554;2023-06-10T00:29:43;100565.34;;;20.08;42.52
40372;BME280;28564;53.346;-6.554;2023-06-10T00:32:10;100564.14;;;20.36;42.42
40372;BME280;28564;53.346;-6.554;2023-06-10T00:34:37;100565.22;;;20.39;42.38
40372;BME280;28564;53.346;-6.554;2023-06-10T00:37:05;100565.40;;;20.34;42.33
40372;BME280;28564;53.346;-6.554;2023-06-10T00:39:32;100564.63;;;20.25;42.46
40372;BME280;28564;53.346;-6.554;2023-06-10T00:41:59;100561.47;;;20.14;42.65
40372;BME280;28564;53.346;-6.554;2023-06-10T00:44:27;100558.35;;;20.04;42.82
40372;BME280;28564;53.346;-6.554;2023-06-10T00:46:54;100553.38;;;19.99;42.92
40372;BME280;28564;53.346;-6.554;2023-06-10T00:49:22;100548.10;;;19.91;43.00
40372;BME280;28564;53.346;-6.554;2023-06-10T00:51:49;100546.63;;;19.82;43.19
40372;BME280;28564;53.346;-6.554;2023-06-10T00:54:17;100548.55;;;20.03;43.29
40372;BME280;28564;53.346;-6.554;2023-06-10T00:56:45;100547.46;;;20.09;43.26
40372;BME280;28564;53.346;-6.554;2023-06-10T00:59:13;100543.09;;;19.93;43.18
40372;BME280;28564;53.346;-6.554;2023-06-10T01:01:40;100540.22;;;19.97;43.11
40372;BME280;28564;53.346;-6.554;2023-06-10T01:04:07;100544.76;;;20.04;43.01
40372;BME280;28564;53.346;-6.554;2023-06-10T01:06:40;100549.10;;;20.03;42.96
40372;BME280;28564;53.346;-6.554;2023-06-10T01:09:17;100548.87;;;20.27;42.95
40372;BME280;28564;53.346;-6.554;2023-06-10T01:11:49;100547.02;;;20.02;42.84
40372;BME280;28564;53.346;-6.554;2023-06-10T01:14:19;100539.81;;;19.89;42.99
40372;BME280;28564;53.346;-6.554;2023-06-10T01:16:46;100537.61;;;19.80;43.18
40372;BME280;28564;53.346;-6.554;2023-06-10T01:19:14;100541.65;;;19.70;43.40
40372;BME280;28564;53.346;-6.554;2023-06-10T01:21:41;100550.89;;;20.04;43.63
40372;BME280;28564;53.346;-6.554;2023-06-10T01:24:09;100553.30;;;19.75;43.84
40372;BME280;28564;53.346;-6.554;2023-06-10T01:26:36;100554.42;;;19.90;43.98
40372;BME280;28564;53.346;-6.554;2023-06-10T01:29:09;100549.98;;;19.62;44.14
40372;BME280;28564;53.346;-6.554;2023-06-10T01:31:43;100548.25;;;19.79;44.26
40372;BME280;28564;53.346;-6.554;2023-06-10T01:34:18;100547.81;;;19.79;44.30
40372;BME280;28564;53.346;-6.554;2023-06-10T01:36:47;100543.56;;;19.80;44.30
40372;BME280;28564;53.346;-6.554;2023-06-10T01:39:17;100536.62;;;19.79;44.31
40372;BME280;28564;53.346;-6.554;2023-06-10T01:41:44;100531.38;;;19.79;44.30
40372;BME280;28564;53.346;-6.554;2023-06-10T01:44:12;100524.57;;;19.81;44.26
40372;BME280;28564;53.346;-6.554;2023-06-10T01:46:39;100520.97;;;19.72;44.36
40372;BME280;28564;53.346;-6.554;2023-06-10T01:49:07;100518.79;;;19.63;44.58
40372;BME280;28564;53.346;-6.554;2023-06-10T01:51:34;100519.43;;;19.62;44.67
40372;BME280;28564;53.346;-6.554;2023-06-10T01:54:02;100523.83;;;19.17;44.69
40372;BME280;28564;53.346;-6.554;2023-06-10T01:56:29;100521.62;;;19.64;44.68
40372;BME280;28564;53.346;-6.554;2023-06-10T01:58:56;100520.20;;;19.70;44.64
40372;BME280;28564;53.346;-6.554;2023-06-10T02:01:23;100522.70;;;19.74;44.53
40372;BME280;28564;53.346;-6.554;2023-06-10T02:03:50;100522.20;;;19.54;44.45
40372;BME280;28564;53.346;-6.554;2023-06-10T02:06:18;100522.32;;;19.76;44.38
40372;BME280;28564;53.346;-6.554;2023-06-10T02:08:45;100517.16;;;19.69;44.49
40372;BME280;28564;53.346;-6.554;2023-06-10T02:11:12;100516.50;;;19.65;44.55
40372;BME280;28564;53.346;-6.554;2023-06-10T02:13:39;100517.70;;;19.33;44.75
40372;BME280;28564;53.346;-6.554;2023-06-10T02:16:06;100518.89;;;19.31;44.88
40372;BME280;28564;53.346;-6.554;2023-06-10T02:18:33;100519.42;;;19.54;44.95
40372;BME280;28564;53.346;-6.554;2023-06-10T02:21:00;100519.69;;;19.54;44.94
40372;BME280;28564;53.346;-6.554;2023-06-10T02:23:28;100519.71;;;19.51;45.03
40372;BME280;28564;53.346;-6.554;2023-06-10T02:25:55;100524.69;;;19.27;45.19
40372;BME280;28564;53.346;-6.554;2023-06-10T02:28:21;100523.24;;;19.53;45.24
40372;BME280;28564;53.346;-6.554;2023-06-10T02:30:48;100527.15;;;19.56;45.21
40372;BME280;28564;53.346;-6.554;2023-06-10T02:33:16;100519.38;;;19.29;45.23
40372;BME280;28564;53.346;-6.554;2023-06-10T02:35:43;100518.48;;;19.23;45.38
40372;BME280;28564;53.346;-6.554;2023-06-10T02:38:11;100523.41;;;19.71;45.46
40372;BME280;28564;53.346;-6.554;2023-06-10T02:40:38;100526.01;;;19.42;45.55
40372;BME280;28564;53.346;-6.554;2023-06-10T02:43:06;100524.07;;;19.42;45.67
40372;BME280;28564;53.346;-6.554;2023-06-10T02:45:33;100525.77;;;19.52;45.68
40372;BME280;28564;53.346;-6.554;2023-06-10T02:48:01;100525.31;;;19.42;45.59
40372;BME280;28564;53.346;-6.554;2023-06-10T02:50:28;100525.80;;;19.54;45.43
40372;BME280;28564;53.346;-6.554;2023-06-10T02:52:54;100522.12;;;19.81;45.26
40372;BME280;28564;53.346;-6.554;2023-06-10T02:55:21;100523.00;;;19.82;45.27
40372;BME280;28564;53.346;-6.554;2023-06-10T02:57:49;100529.83;;;19.91;45.15
40372;BME280;28564;53.346;-6.554;2023-06-10T03:00:17;100523.97;;;19.64;45.17
40372;BME280;28564;53.346;-6.554;2023-06-10T03:02:44;100520.65;;;19.62;45.27
40372;BME280;28564;53.346;-6.554;2023-06-10T03:05:11;100516.82;;;19.39;45.29
40372;BME280;28564;53.346;-6.554;2023-06-10T03:07:38;100516.58;;;19.86;45.28
40372;BME280;28564;53.346;-6.554;2023-06-10T03:10:07;100518.12;;;19.88;45.27
40372;BME280;28564;53.346;-6.554;2023-06-10T03:12:34;100515.77;;;19.66;45.21
40372;BME280;28564;53.346;-6.554;2023-06-10T03:15:00;100508.57;;;19.68;45.11
40372;BME280;28564;53.346;-6.554;2023-06-10T03:17:28;100508.85;;;19.44;45.09
40372;BME280;28564;53.346;-6.554;2023-06-10T03:19:55;100512.67;;;19.81;45.11
40372;BME280;28564;53.346;-6.554;2023-06-10T03:22:22;100513.86;;;19.48;45.31
40372;BME280;28564;53.346;-6.554;2023-06-10T03:24:49;100509.85;;;19.44;45.41
40372;BME280;28564;53.346;-6.554;2023-06-10T03:27:16;100510.69;;;19.64;45.50
40372;BME280;28564;53.346;-6.554;2023-06-10T03:29:43;100509.80;;;19.65;45.51
40372;BME280;28564;53.346;-6.554;2023-06-10T03:32:10;100509.51;;;19.19;45.46
40372;BME280;28564;53.346;-6.554;2023-06-10T03:34:37;100516.13;;;19.61;45.51
40372;BME280;28564;53.346;-6.554;2023-06-10T03:37:05;100520.07;;;19.55;45.55
40372;BME280;28564;53.346;-6.554;2023-06-10T03:39:33;100520.21;;;19.53;45.65
40372;BME280;28564;53.346;-6.554;2023-06-10T03:42:00;100520.27;;;19.51;45.72
40372;BME280;28564;53.346;-6.554;2023-06-10T03:44:27;100520.20;;;19.45;45.75
40372;BME280;28564;53.346;-6.554;2023-06-10T03:46:54;100510.87;;;19.19;45.88
40372;BME280;28564;53.346;-6.554;2023-06-10T03:49:22;100505.89;;;19.44;45.95
40372;BME280;28564;53.346;-6.554;2023-06-10T03:51:49;100507.15;;;19.42;45.95
40372;BME280;28564;53.346;-6.554;2023-06-10T03:54:17;100509.21;;;18.91;46.10
40372;BME280;28564;53.346;-6.554;2023-06-10T03:56:44;100510.20;;;19.10;46.19
40372;BME280;28564;53.346;-6.554;2023-06-10T03:59:11;100506.31;;;19.05;46.30
40372;BME280;28564;53.346;-6.554;2023-06-10T04:01:38;100513.74;;;19.27;46.39
40372;BME280;28564;53.346;-6.554;2023-06-10T04:04:06;100515.95;;;19.28;46.45
40372;BME280;28564;53.346;-6.554;2023-06-10T04:06:33;100513.10;;;19.31;46.37
40372;BME280;28564;53.346;-6.554;2023-06-10T04:08:59;100512.50;;;19.30;46.39
40372;BME280;28564;53.346;-6.554;2023-06-10T04:11:27;100512.63;;;19.27;46.47
40372;BME280;28564;53.346;-6.554;2023-06-10T04:13:53;100508.74;;;19.25;46.58
40372;BME280;28564;53.346;-6.554;2023-06-10T04:16:20;100501.41;;;19.25;46.65
40372;BME280;28564;53.346;-6.554;2023-06-10T04:18:47;100496.60;;;19.24;46.72
40372;BME280;28564;53.346;-6.554;2023-06-10T04:21:15;100497.42;;;18.99;46.84
40372;BME280;28564;53.346;-6.554;2023-06-10T04:23:42;100495.75;;;19.01;46.94
40372;BME280;28564;53.346;-6.554;2023-06-10T04:26:09;100494.63;;;19.21;47.04
40372;BME280;28564;53.346;-6.554;2023-06-10T04:28:36;100491.76;;;18.99;47.18
40372;BME280;28564;53.346;-6.554;2023-06-10T04:31:04;100492.39;;;19.22;47.29
40372;BME280;28564;53.346;-6.554;2023-06-10T04:33:32;100487.62;;;19.25;47.34
40372;BME280;28564;53.346;-6.554;2023-06-10T04:35:58;100484.83;;;19.26;47.39
40372;BME280;28564;53.346;-6.554;2023-06-10T04:38:26;100480.91;;;19.28;47.49
40372;BME280;28564;53.346;-6.554;2023-06-10T04:40:53;100481.18;;;19.30;47.51
40372;BME280;28564;53.346;-6.554;2023-06-10T04:43:21;100486.09;;;19.06;47.57
40372;BME280;28564;53.346;-6.554;2023-06-10T04:45:48;100493.64;;;19.03;47.70
40372;BME280;28564;53.346;-6.554;2023-06-10T04:48:15;100499.43;;;19.31;47.72
40372;BME280;28564;53.346;-6.554;2023-06-10T04:50:42;100501.69;;;19.34;47.66
40372;BME280;28564;53.346;-6.554;2023-06-10T04:53:09;100504.02;;;18.92;47.62
40372;BME280;28564;53.346;-6.554;2023-06-10T04:55:36;100509.03;;;19.40;47.52
40372;BME280;28564;53.346;-6.554;2023-06-10T04:58:04;100508.01;;;19.18;47.43
40372;BME280;28564;53.346;-6.554;2023-06-10T05:00:32;100513.38;;;19.41;47.47
40372;BME280;28564;53.346;-6.554;2023-06-10T05:02:59;100509.86;;;19.44;47.37
40372;BME280;28564;53.346;-6.554;2023-06-10T05:05:26;100512.07;;;19.43;47.40
40372;BME280;28564;53.346;-6.554;2023-06-10T05:07:54;100515.02;;;19.45;47.39
40372;BME280;28564;53.346;-6.554;2023-06-10T05:10:22;100517.45;;;19.52;47.35
40372;BME280;28564;53.346;-6.554;2023-06-10T05:12:49;100515.19;;;19.52;47.32
40372;BME280;28564;53.346;-6.554;2023-06-10T05:15:17;100517.74;;;19.52;47.30
40372;BME280;28564;53.346;-6.554;2023-06-10T05:17:44;100515.11;;;19.28;47.34
40372;BME280;28564;53.346;-6.554;2023-06-10T05:20:11;100512.01;;;19.32;47.34
40372;BME280;28564;53.346;-6.554;2023-06-10T05:22:39;100509.61;;;19.56;47.36
40372;BME280;28564;53.346;-6.554;2023-06-10T05:25:07;100512.71;;;19.16;47.29
40372;BME280;28564;53.346;-6.554;2023-06-10T05:27:35;100506.75;;;19.43;47.26
40372;BME280;28564;53.346;-6.554;2023-06-10T05:30:02;100502.33;;;19.49;47.20
40372;BME280;28564;53.346;-6.554;2023-06-10T05:32:29;100500.12;;;19.54;47.17
40372;BME280;28564;53.346;-6.554;2023-06-10T05:34:56;100501.95;;;19.38;47.10
40372;BME280;28564;53.346;-6.554;2023-06-10T05:37:23;100498.79;;;19.71;46.98
40372;BME280;28564;53.346;-6.554;2023-06-10T05:39:50;100507.37;;;19.54;46.85
40372;BME280;28564;53.346;-6.554;2023-06-10T05:42:17;100513.62;;;19.81;46.85
40372;BME280;28564;53.346;-6.554;2023-06-10T05:44:45;100510.10;;;19.64;46.74
40372;BME280;28564;53.346;-6.554;2023-06-10T05:47:12;100505.96;;;20.14;46.71
40372;BME280;28564;53.346;-6.554;2023-06-10T05:49:40;100507.83;;;19.79;46.60
40372;BME280;28564;53.346;-6.554;2023-06-10T05:52:07;100509.30;;;20.04;46.48
40372;BME280;28564;53.346;-6.554;2023-06-10T05:54:34;100513.90;;;19.85;46.39
40372;BME280;28564;53.346;-6.554;2023-06-10T05:57:02;100518.23;;;19.83;46.36
40372;BME280;28564;53.346;-6.554;2023-06-10T05:59:29;100518.57;;;19.87;46.40
40372;BME280;28564;53.346;-6.554;2023-06-10T06:01:56;100517.16;;;19.86;46.41
40372;BME280;28564;53.346;-6.554;2023-06-10T06:04:23;100514.69;;;19.94;46.47
40372;BME280;28564;53.346;-6.554;2023-06-10T06:06:51;100517.03;;;20.01;46.33
40372;BME280;28564;53.346;-6.554;2023-06-10T06:09:18;100512.09;;;20.02;46.36
40372;BME280;28564;53.346;-6.554;2023-06-10T06:11:45;100507.12;;;20.11;46.39
40372;BME280;28564;53.346;-6.554;2023-06-10T06:14:12;100510.45;;;20.23;46.19
40372;BME280;28564;53.346;-6.554;2023-06-10T06:16:39;100510.49;;;20.30;46.00
40372;BME280;28564;53.346;-6.554;2023-06-10T06:19:07;100507.54;;;20.37;45.98
40372;BME280;28564;53.346;-6.554;2023-06-10T06:21:34;100510.12;;;20.43;45.88
40372;BME280;28564;53.346;-6.554;2023-06-10T06:24:02;100515.37;;;20.51;45.89
40372;BME280;28564;53.346;-6.554;2023-06-10T06:26:29;100519.64;;;20.38;45.74
40372;BME280;28564;53.346;-6.554;2023-06-10T06:28:57;100515.80;;;20.45;45.62
40372;BME280;28564;53.346;-6.554;2023-06-10T06:31:24;100520.86;;;20.85;45.69
40372;BME280;28564;53.346;-6.554;2023-06-10T06:33:52;100515.85;;;20.73;45.57
40372;BME280;28564;53.346;-6.554;2023-06-10T06:36:19;100514.82;;;21.10;45.42
40372;BME280;28564;53.346;-6.554;2023-06-10T06:38:46;100517.59;;;20.76;45.19
40372;BME280;28564;53.346;-6.554;2023-06-10T06:41:13;100526.55;;;20.88;44.92
40372;BME280;28564;53.346;-6.554;2023-06-10T06:43:41;100522.89;;;20.97;44.82
40372;BME280;28564;53.346;-6.554;2023-06-10T06:46:08;100519.53;;;21.10;44.81
40372;BME280;28564;53.346;-6.554;2023-06-10T06:48:35;100520.21;;;21.18;44.63
40372;BME280;28564;53.346;-6.554;2023-06-10T06:51:02;100520.84;;;21.28;44.58
40372;BME280;28564;53.346;-6.554;2023-06-10T06:53:29;100520.85;;;21.33;44.32
40372;BME280;28564;53.346;-6.554;2023-06-10T06:55:56;100520.76;;;21.32;44.41
40372;BME280;28564;53.346;-6.554;2023-06-10T06:58:24;100524.51;;;21.45;44.44
40372;BME280;28564;53.346;-6.554;2023-06-10T07:00:51;100519.98;;;21.49;44.18
40372;BME280;28564;53.346;-6.554;2023-06-10T07:03:19;100518.60;;;21.44;43.89
40372;BME280;28564;53.346;-6.554;2023-06-10T07:05:46;100518.47;;;21.40;43.98
40372;BME280;28564;53.346;-6.554;2023-06-10T07:08:13;100518.84;;;21.19;43.79
40372;BME280;28564;53.346;-6.554;2023-06-10T07:10:40;100516.02;;;21.36;43.83
40372;BME280;28564;53.346;-6.554;2023-06-10T07:13:07;100518.59;;;21.43;43.98
40372;BME280;28564;53.346;-6.554;2023-06-10T07:15:34;100523.09;;;21.57;43.93
40372;BME280;28564;53.346;-6.554;2023-06-10T07:18:02;100527.29;;;21.71;43.74
40372;BME280;28564;53.346;-6.554;2023-06-10T07:20:29;100523.56;;;21.84;43.57
40372;BME280;28564;53.346;-6.554;2023-06-10T07:22:57;100525.71;;;21.75;43.40
40372;BME280;28564;53.346;-6.554;2023-06-10T07:25:24;100530.21;;;21.60;43.19
40372;BME280;28564;53.346;-6.554;2023-06-10T07:27:51;100532.22;;;21.79;43.08
40372;BME280;28564;53.346;-6.554;2023-06-10T07:30:18;100528.20;;;22.03;42.98
40372;BME280;28564;53.346;-6.554;2023-06-10T07:32:45;100523.96;;;22.24;42.71
40372;BME280;28564;53.346;-6.554;2023-06-10T07:35:13;100525.83;;;22.50;42.59
40372;BME280;28564;53.346;-6.554;2023-06-10T07:37:41;100528.93;;;22.64;42.19
40372;BME280;28564;53.346;-6.554;2023-06-10T07:40:09;100527.39;;;22.47;42.14
40372;BME280;28564;53.346;-6.554;2023-06-10T07:42:37;100528.87;;;22.52;42.10
40372;BME280;28564;53.346;-6.554;2023-06-10T07:45:05;100533.60;;;22.82;42.13
40372;BME280;28564;53.346;-6.554;2023-06-10T07:47:33;100533.79;;;22.71;42.09
40372;BME280;28564;53.346;-6.554;2023-06-10T07:50:01;100540.78;;;22.87;41.84
40372;BME280;28564;53.346;-6.554;2023-06-10T07:52:29;100541.86;;;22.97;41.57
40372;BME280;28564;53.346;-6.554;2023-06-10T07:54:56;100546.83;;;22.82;41.50
40372;BME280;28564;53.346;-6.554;2023-06-10T07:57:23;100541.90;;;22.81;41.08
40372;BME280;28564;53.346;-6.554;2023-06-10T07:59:51;100545.41;;;23.26;41.06
40372;BME280;28564;53.346;-6.554;2023-06-10T08:02:18;100548.16;;;23.27;41.09
40372;BME280;28564;53.346;-6.554;2023-06-10T08:04:45;100549.87;;;23.09;41.09
40372;BME280;28564;53.346;-6.554;2023-06-10T08:07:13;100550.20;;;23.20;41.00
40372;BME280;28564;53.346;-6.554;2023-06-10T08:09:41;100548.89;;;23.31;41.11
40372;BME280;28564;53.346;-6.554;2023-06-10T08:12:08;100549.36;;;23.44;41.04
40372;BME280;28564;53.346;-6.554;2023-06-10T08:14:35;100550.84;;;23.31;40.94
40372;BME280;28564;53.346;-6.554;2023-06-10T08:17:03;100549.53;;;23.45;40.79
40372;BME280;28564;53.346;-6.554;2023-06-10T08:19:29;100550.85;;;23.54;40.49
40372;BME280;28564;53.346;-6.554;2023-06-10T08:21:57;100550.50;;;23.57;40.36
40372;BME280;28564;53.346;-6.554;2023-06-10T08:24:24;100553.60;;;23.47;40.40
40372;BME280;28564;53.346;-6.554;2023-06-10T08:26:52;100557.97;;;23.81;40.18
40372;BME280;28564;53.346;-6.554;2023-06-10T08:29:19;100562.69;;;23.66;39.95
40372;BME280;28564;53.346;-6.554;2023-06-10T08:31:47;100564.34;;;23.69;39.82
40372;BME280;28564;53.346;-6.554;2023-06-10T08:34:14;100569.74;;;23.78;39.72
40372;BME280;28564;53.346;-6.554;2023-06-10T08:36:42;100566.16;;;23.74;39.49
40372;BME280;28564;53.346;-6.554;2023-06-10T08:39:09;100565.46;;;23.59;39.34
40372;BME280;28564;53.346;-6.554;2023-06-10T08:41:42;100559.79;;;23.85;39.35
40372;BME280;28564;53.346;-6.554;2023-06-10T08:44:17;100557.81;;;24.16;39.28
40372;BME280;28564;53.346;-6.554;2023-06-10T08:46:49;100562.00;;;23.77;39.21
40372;BME280;28564;53.346;-6.554;2023-06-10T08:49:19;100563.83;;;23.73;39.13
40372;BME280;28564;53.346;-6.554;2023-06-10T08:51:50;100561.72;;;23.69;39.32
40372;BME280;28564;53.346;-6.554;2023-06-10T08:54:21;100565.39;;;24.05;39.47
40372;BME280;28564;53.346;-6.554;2023-06-10T08:56:50;100570.28;;;23.98;39.92
40372;BME280;28564;53.346;-6.554;2023-06-10T08:59:18;100569.47;;;23.92;40.26
40372;BME280;28564;53.346;-6.554;2023-06-10T09:01:47;100567.23;;;23.47;40.58
40372;BME280;28564;53.346;-6.554;2023-06-10T09:04:15;100564.54;;;23.66;40.89
40372;BME280;28564;53.346;-6.554;2023-06-10T09:06:42;100570.01;;;23.51;41.26
40372;BME280;28564;53.346;-6.554;2023-06-10T09:09:10;100566.53;;;23.64;41.57
40372;BME280;28564;53.346;-6.554;2023-06-10T09:11:40;100563.16;;;23.58;41.86
40372;BME280;28564;53.346;-6.554;2023-06-10T09:14:07;100567.80;;;23.91;42.16
40372;BME280;28564;53.346;-6.554;2023-06-10T09:16:37;100564.95;;;23.48;42.32
40372;BME280;28564;53.346;-6.554;2023-06-10T09:19:05;100562.93;;;23.79;42.39
40372;BME280;28564;53.346;-6.554;2023-06-10T09:21:32;100563.42;;;23.73;42.34
40372;BME280;28564;53.346;-6.554;2023-06-10T09:23:59;100561.61;;;23.63;42.43
40372;BME280;28564;53.346;-6.554;2023-06-10T09:26:28;100556.24;;;23.55;42.55
40372;BME280;28564;53.346;-6.554;2023-06-10T09:29:02;100552.85;;;23.43;42.89
40372;BME280;28564;53.346;-6.554;2023-06-10T09:31:30;100558.77;;;23.46;43.13
40372;BME280;28564;53.346;-6.554;2023-06-10T09:34:05;100570.08;;;23.43;43.06
40372;BME280;28564;53.346;-6.554;2023-06-10T09:36:33;100574.07;;;23.24;43.04
40372;BME280;28564;53.346;-6.554;2023-06-10T09:39:00;100575.49;;;23.49;43.37
40372;BME280;28564;53.346;-6.554;2023-06-10T09:41:32;100570.82;;;23.25;43.50
40372;BME280;28564;53.346;-6.554;2023-06-10T09:44:00;100574.06;;;23.12;43.53
40372;BME280;28564;53.346;-6.554;2023-06-10T09:46:31;100578.94;;;23.41;43.33
40372;BME280;28564;53.346;-6.554;2023-06-10T09:48:59;100575.54;;;23.59;43.06
40372;BME280;28564;53.346;-6.554;2023-06-10T09:51:26;100568.35;;;23.46;43.00
40372;BME280;28564;53.346;-6.554;2023-06-10T09:53:54;100562.75;;;23.76;42.78
40372;BME280;28564;53.346;-6.554;2023-06-10T09:56:21;100565.65;;;23.57;42.46
40372;BME280;28564;53.346;-6.554;2023-06-10T09:58:59;100567.91;;;23.91;42.35
40372;BME280;28564;53.346;-6.554;2023-06-10T10:01:27;100565.09;;;23.56;42.21
40372;BME280;28564;53.346;-6.554;2023-06-10T10:03:54;100568.42;;;23.92;42.14
40372;BME280;28564;53.346;-6.554;2023-06-10T10:06:22;100565.55;;;24.13;42.16
40372;BME280;28564;53.346;-6.554;2023-06-10T10:08:50;100569.00;;;23.87;42.18
40372;BME280;28564;53.346;-6.554;2023-06-10T10:11:20;100563.70;;;23.82;42.33
40372;BME280;28564;53.346;-6.554;2023-06-10T10:13:49;100560.25;;;23.84;42.63
40372;BME280;28564;53.346;-6.554;2023-06-10T10:16:20;100561.63;;;23.64;42.89
40372;BME280;28564;53.346;-6.554;2023-06-10T10:18:53;100563.42;;;23.01;43.06
40372;BME280;28564;53.346;-6.554;2023-06-10T10:21:23;100561.57;;;23.31;43.42
40372;BME280;28564;53.346;-6.554;2023-06-10T10:23:57;100555.17;;;23.21;43.64
40372;BME280;28564;53.346;-6.554;2023-06-10T10:26:27;100543.35;;;23.30;43.86
40372;BME280;28564;53.346;-6.554;2023-06-10T10:29:02;100547.52;;;23.68;43.94
40372;BME280;28564;53.346;-6.554;2023-06-10T10:31:35;100544.68;;;23.47;43.89
40372;BME280;28564;53.346;-6.554;2023-06-10T10:34:06;100530.64;;;23.45;43.92
40372;BME280;28564;53.346;-6.554;2023-06-10T10:36:35;100522.98;;;23.46;44.07
40372;BME280;28564;53.346;-6.554;2023-06-10T10:39:04;100520.14;;;23.45;44.26
40372;BME280;28564;53.346;-6.554;2023-06-10T10:41:32;100510.65;;;23.24;44.39
40372;BME280;28564;53.346;-6.554;2023-06-10T10:44:01;100496.21;;;23.52;44.39
40372;BME280;28564;53.346;-6.554;2023-06-10T10:46:30;100492.17;;;23.59;44.32
40372;BME280;28564;53.346;-6.554;2023-06-10T10:48:58;100489.04;;;23.70;44.20
40372;BME280;28564;53.346;-6.554;2023-06-10T10:51:25;100488.14;;;23.64;44.18
40372;BME280;28564;53.346;-6.554;2023-06-10T10:54:58;100507.91;;;23.96;44.05
40372;BME280;28564;53.346;-6.554;2023-06-10T10:57:29;100524.17;;;23.74;44.10
40372;BME280;28564;53.346;-6.554;2023-06-10T10:59:58;100523.67;;;24.04;44.11
40372;BME280;28564;53.346;-6.554;2023-06-10T11:02:35;100519.67;;;24.03;44.07
40372;BME280;28564;53.346;-6.554;2023-06-10T11:05:03;100521.04;;;23.58;44.12
40372;BME280;28564;53.346;-6.554;2023-06-10T11:07:31;100518.90;;;23.93;43.89
40372;BME280;28564;53.346;-6.554;2023-06-10T11:10:00;100516.99;;;23.92;43.66
40372;BME280;28564;53.346;-6.554;2023-06-10T11:12:50;100513.08;;;24.07;43.41
40372;BME280;28564;53.346;-6.554;2023-06-10T11:15:19;100508.49;;;24.16;43.04
40372;BME280;28564;53.346;-6.554;2023-06-10T11:18:54;100501.83;;;24.24;43.22
40372;BME280;28564;53.346;-6.554;2023-06-10T11:21:23;100492.57;;;24.44;43.24
40372;BME280;28564;53.346;-6.554;2023-06-10T11:23:51;100494.69;;;24.73;43.17
40372;BME280;28564;53.346;-6.554;2023-06-10T11:26:29;100510.57;;;25.05;43.19
40372;BME280;28564;53.346;-6.554;2023-06-10T11:29:11;100519.70;;;25.16;42.75
40372;BME280;28564;53.346;-6.554;2023-06-10T11:31:44;100519.99;;;25.30;41.95
40372;BME280;28564;53.346;-6.554;2023-06-10T11:34:11;100517.23;;;25.29;41.36
40372;BME280;28564;53.346;-6.554;2023-06-10T11:36:40;100520.12;;;25.89;41.38
40372;BME280;28564;53.346;-6.554;2023-06-10T11:39:07;100520.34;;;26.30;41.01
40372;BME280;28564;53.346;-6.554;2023-06-10T11:41:36;100513.04;;;26.11;40.37
40372;BME280;28564;53.346;-6.554;2023-06-10T11:44:08;100516.51;;;26.49;39.87
40372;BME280;28564;53.346;-6.554;2023-06-10T11:46:36;100516.26;;;26.27;39.79
40372;BME280;28564;53.346;-6.554;2023-06-10T11:49:04;100519.65;;;26.51;39.93
40372;BME280;28564;53.346;-6.554;2023-06-10T11:51:34;100519.58;;;26.80;39.70
40372;BME280;28564;53.346;-6.554;2023-06-10T11:54:01;100517.85;;;26.86;38.68
40372;BME280;28564;53.346;-6.554;2023-06-10T11:56:31;100512.16;;;26.85;39.09
40372;BME280;28564;53.346;-6.554;2023-06-10T11:59:00;100503.32;;;26.92;38.60
40372;BME280;28564;53.346;-6.554;2023-06-10T12:01:28;100503.25;;;26.87;38.18
40372;BME280;28564;53.346;-6.554;2023-06-10T12:04:00;100506.14;;;26.84;38.13
40372;BME280;28564;53.346;-6.554;2023-06-10T12:06:27;100507.98;;;26.74;38.04
40372;BME280;28564;53.346;-6.554;2023-06-10T12:09:04;100506.75;;;26.63;37.91
40372;BME280;28564;53.346;-6.554;2023-06-10T12:11:31;100507.11;;;26.54;37.74
40372;BME280;28564;53.346;-6.554;2023-06-10T12:13:59;100504.80;;;26.54;37.74
40372;BME280;28564;53.346;-6.554;2023-06-10T12:16:27;100505.21;;;26.57;37.80
40372;BME280;28564;53.346;-6.554;2023-06-10T12:19:01;100503.22;;;26.55;37.58
40372;BME280;28564;53.346;-6.554;2023-06-10T12:21:30;100509.50;;;26.48;37.23
40372;BME280;28564;53.346;-6.554;2023-06-10T12:24:07;100515.89;;;26.41;37.53
40372;BME280;28564;53.346;-6.554;2023-06-10T12:26:37;100517.87;;;26.53;37.71
40372;BME280;28564;53.346;-6.554;2023-06-10T12:29:21;100518.85;;;26.69;37.56
40372;BME280;28564;53.346;-6.554;2023-06-10T12:32:05;100521.12;;;26.54;37.20
40372;BME280;28564;53.346;-6.554;2023-06-10T12:34:35;100522.35;;;26.93;37.08
40372;BME280;28564;53.346;-6.554;2023-06-10T12:37:04;100517.26;;;27.04;37.05
40372;BME280;28564;53.346;-6.554;2023-06-10T12:39:33;100517.76;;;27.17;36.66
40372;BME280;28564;53.346;-6.554;2023-06-10T12:42:01;100515.16;;;27.13;36.41
40372;BME280;28564;53.346;-6.554;2023-06-10T12:44:32;100513.44;;;26.99;36.53
40372;BME280;28564;53.346;-6.554;2023-06-10T12:46:59;100509.93;;;26.73;36.85